KHB102 UHWW-UHHH
Flight info
| Callsign | KHB102 |
|---|---|
| Flight time | 1h 5m |
| Altitude | 33000 |
| Route | DOLMA2P DOLMA B356 TD B355 ARDEL ARDEL6F |
| Aircraft | B77W/H-SDE1E2E3FGHIJ2J3J4J5M1RWXY/LB1D1 |
Departure
| Time | 2026-04-25 13:20 |
|---|---|
| Airport | Vladivostok International Airport (UHWW) |
Arrival
| Time | 2026-04-25 14:25 |
|---|---|
| Airport | Khabarovsk Novy Airport (UHHH) |
| Time | Latitude | Longitude | Altitude | Speed | Heading |
|---|---|---|---|---|---|
| 2026-04-25 12:18 | 43.39753 | 132.16560 | 75 ft | 0 kts | 151° |
| 2026-04-25 12:39 | 43.39753 | 132.16559 | 75 ft | 0 kts | 151° |
| 2026-04-25 13:07 | 43.39766 | 132.16549 | 64 ft | 3 kts | 149° |
| 2026-04-25 13:07 | 43.39782 | 132.16536 | 64 ft | 3 kts | 149° |
| 2026-04-25 13:07 | 43.39798 | 132.16523 | 64 ft | 3 kts | 146° |
| 2026-04-25 13:08 | 43.39813 | 132.16505 | 64 ft | 3 kts | 128° |
| 2026-04-25 13:08 | 43.39824 | 132.16482 | 64 ft | 3 kts | 111° |
| 2026-04-25 13:08 | 43.39829 | 132.16457 | 68 ft | 3 kts | 94° |
| 2026-04-25 13:08 | 43.39828 | 132.16429 | 81 ft | 4 kts | 76° |
| 2026-04-25 13:09 | 43.39827 | 132.16422 | 83 ft | 0 kts | 70° |
| 2026-04-25 13:13 | 43.39829 | 132.16432 | 81 ft | 3 kts | 70° |
| 2026-04-25 13:13 | 43.39838 | 132.16466 | 71 ft | 4 kts | 72° |
| 2026-04-25 13:13 | 43.39847 | 132.16506 | 70 ft | 4 kts | 72° |
| 2026-04-25 13:14 | 43.39857 | 132.16547 | 80 ft | 5 kts | 70° |
| 2026-04-25 13:14 | 43.39872 | 132.16595 | 55 ft | 6 kts | 64° |
| 2026-04-25 13:14 | 43.39891 | 132.16646 | 64 ft | 6 kts | 63° |
| 2026-04-25 13:14 | 43.39911 | 132.16700 | 64 ft | 6 kts | 62° |
| 2026-04-25 13:15 | 43.39933 | 132.16753 | 66 ft | 6 kts | 62° |
| 2026-04-25 13:15 | 43.39954 | 132.16807 | 66 ft | 6 kts | 60° |
| 2026-04-25 13:15 | 43.39976 | 132.16860 | 64 ft | 6 kts | 60° |
| 2026-04-25 13:15 | 43.39998 | 132.16914 | 64 ft | 6 kts | 61° |
| 2026-04-25 13:16 | 43.40021 | 132.16970 | 64 ft | 7 kts | 61° |
| 2026-04-25 13:16 | 43.40044 | 132.17029 | 64 ft | 7 kts | 60° |
| 2026-04-25 13:16 | 43.40077 | 132.17080 | 64 ft | 7 kts | 32° |
| 2026-04-25 13:16 | 43.40126 | 132.17077 | 68 ft | 7 kts | 338° |
| 2026-04-25 13:17 | 43.40174 | 132.17046 | 66 ft | 8 kts | 333° |
| 2026-04-25 13:17 | 43.40225 | 132.17010 | 69 ft | 8 kts | 332° |
| 2026-04-25 13:17 | 43.40277 | 132.16972 | 70 ft | 9 kts | 331° |
| 2026-04-25 13:17 | 43.40332 | 132.16930 | 69 ft | 9 kts | 331° |
| 2026-04-25 13:18 | 43.40388 | 132.16887 | 63 ft | 7 kts | 330° |
| 2026-04-25 13:18 | 43.40424 | 132.16838 | 65 ft | 8 kts | 293° |
| 2026-04-25 13:18 | 43.40417 | 132.16769 | 68 ft | 2 kts | 242° |
| 2026-04-25 13:18 | 43.40416 | 132.16769 | 68 ft | 0 kts | 242° |
| 2026-04-25 13:19 | 43.40386 | 132.16691 | 71 ft | 37 kts | 242° |
| 2026-04-25 13:19 | 43.40088 | 132.15953 | 62 ft | 137 kts | 242° |
| 2026-04-25 13:19 | 43.39690 | 132.15045 | 160 ft | 184 kts | 237° |
| 2026-04-25 13:20 | 43.38832 | 132.12950 | 1467 ft | 192 kts | 236° |
| 2026-04-25 13:20 | 43.38202 | 132.11358 | 2503 ft | 190 kts | 234° |
| 2026-04-25 13:20 | 43.37521 | 132.09703 | 2974 ft | 212 kts | 235° |
| 2026-04-25 13:20 | 43.36782 | 132.07860 | 3632 ft | 225 kts | 237° |
| 2026-04-25 13:21 | 43.36026 | 132.05949 | 4477 ft | 230 kts | 239° |
| 2026-04-25 13:21 | 43.35231 | 132.04014 | 5355 ft | 235 kts | 239° |
| 2026-04-25 13:21 | 43.34361 | 132.02115 | 6221 ft | 237 kts | 229° |
| 2026-04-25 13:21 | 43.32987 | 132.00801 | 6998 ft | 248 kts | 202° |
| 2026-04-25 13:22 | 43.31279 | 132.00412 | 7935 ft | 254 kts | 184° |
| 2026-04-25 13:22 | 43.29499 | 132.00837 | 8761 ft | 270 kts | 165° |
| 2026-04-25 13:22 | 43.27848 | 132.02259 | 9386 ft | 296 kts | 139° |
| 2026-04-25 13:23 | 43.26667 | 132.07787 | 10868 ft | 330 kts | 85° |
| 2026-04-25 13:23 | 43.27254 | 132.10920 | 11368 ft | 349 kts | 69° |
| 2026-04-25 13:23 | 43.28209 | 132.14067 | 11897 ft | 366 kts | 68° |
| 2026-04-25 13:23 | 43.29131 | 132.17428 | 12400 ft | 387 kts | 71° |
| 2026-04-25 13:24 | 43.29999 | 132.21057 | 12795 ft | 409 kts | 72° |
| 2026-04-25 13:24 | 43.30865 | 132.24827 | 13660 ft | 419 kts | 72° |
| 2026-04-25 13:24 | 43.31755 | 132.28667 | 14480 ft | 426 kts | 72° |
| 2026-04-25 13:24 | 43.32664 | 132.32523 | 15327 ft | 432 kts | 72° |
| 2026-04-25 13:25 | 43.33622 | 132.36526 | 16224 ft | 439 kts | 71° |
| 2026-04-25 13:25 | 43.34588 | 132.40466 | 17039 ft | 441 kts | 68° |
| 2026-04-25 13:25 | 43.36135 | 132.44130 | 17691 ft | 447 kts | 46° |
| 2026-04-25 13:25 | 43.38464 | 132.46931 | 18473 ft | 446 kts | 28° |
| 2026-04-25 13:26 | 43.41229 | 132.48752 | 19297 ft | 435 kts | 11° |
| 2026-04-25 13:26 | 43.44142 | 132.49848 | 20044 ft | 436 kts | 8° |
| 2026-04-25 13:26 | 43.47104 | 132.50880 | 20795 ft | 441 kts | 8° |
| 2026-04-25 13:26 | 43.50090 | 132.51918 | 21635 ft | 444 kts | 8° |
| 2026-04-25 13:27 | 43.53089 | 132.52983 | 22476 ft | 447 kts | 8° |
| 2026-04-25 13:27 | 43.56108 | 132.54081 | 23263 ft | 451 kts | 8° |
| 2026-04-25 13:27 | 43.59152 | 132.55207 | 23901 ft | 456 kts | 9° |
| 2026-04-25 13:27 | 43.62235 | 132.56357 | 24518 ft | 460 kts | 9° |
| 2026-04-25 13:28 | 43.65332 | 132.57519 | 25128 ft | 463 kts | 9° |
| 2026-04-25 13:28 | 43.66386 | 132.57915 | 25321 ft | 465 kts | 9° |
| 2026-04-25 13:28 | 43.71609 | 132.59878 | 26243 ft | 472 kts | 9° |
| 2026-04-25 13:28 | 43.74790 | 132.61072 | 26804 ft | 475 kts | 9° |
| 2026-04-25 13:29 | 43.77991 | 132.62276 | 27345 ft | 478 kts | 9° |
| 2026-04-25 13:29 | 43.81146 | 132.63903 | 27740 ft | 495 kts | 23° |
| 2026-04-25 13:29 | 43.83956 | 132.66765 | 28172 ft | 508 kts | 37° |
| 2026-04-25 13:30 | 43.89189 | 132.73499 | 29087 ft | 517 kts | 38° |
| 2026-04-25 13:30 | 43.91838 | 132.76907 | 29544 ft | 521 kts | 38° |
| 2026-04-25 13:30 | 43.94519 | 132.80300 | 29968 ft | 523 kts | 37° |
| 2026-04-25 13:31 | 43.99927 | 132.87025 | 31111 ft | 517 kts | 36° |
| 2026-04-25 13:31 | 44.02606 | 132.90338 | 31736 ft | 514 kts | 36° |
| 2026-04-25 13:31 | 44.05275 | 132.93640 | 32268 ft | 513 kts | 36° |
| 2026-04-25 13:31 | 44.07934 | 132.96934 | 32770 ft | 512 kts | 36° |
| 2026-04-25 13:32 | 44.10595 | 133.00238 | 32987 ft | 515 kts | 36° |
| 2026-04-25 13:32 | 44.15937 | 133.06897 | 32954 ft | 513 kts | 36° |
| 2026-04-25 13:33 | 44.21288 | 133.13419 | 32951 ft | 507 kts | 32° |
| 2026-04-25 13:33 | 44.26932 | 133.19269 | 32964 ft | 505 kts | 30° |
| 2026-04-25 13:34 | 44.32589 | 133.25000 | 32965 ft | 506 kts | 30° |
| 2026-04-25 13:34 | 44.38278 | 133.30829 | 32964 ft | 508 kts | 30° |
| 2026-04-25 13:35 | 44.43963 | 133.36718 | 32962 ft | 509 kts | 30° |
| 2026-04-25 13:35 | 44.49652 | 133.42637 | 32970 ft | 510 kts | 30° |
| 2026-04-25 13:36 | 44.55350 | 133.48575 | 32960 ft | 511 kts | 30° |
| 2026-04-25 13:36 | 44.61047 | 133.54526 | 32961 ft | 511 kts | 30° |
| 2026-04-25 13:37 | 44.66743 | 133.60489 | 32965 ft | 510 kts | 30° |
| 2026-04-25 13:37 | 44.72431 | 133.66459 | 32959 ft | 510 kts | 30° |
| 2026-04-25 13:38 | 44.78109 | 133.72434 | 32956 ft | 508 kts | 29° |
| 2026-04-25 13:38 | 44.83711 | 133.78351 | 32968 ft | 500 kts | 29° |
| 2026-04-25 13:39 | 44.89241 | 133.84192 | 32976 ft | 500 kts | 29° |
| 2026-04-25 13:39 | 44.94834 | 133.90032 | 32972 ft | 499 kts | 27° |
| 2026-04-25 13:40 | 45.00515 | 133.95655 | 32960 ft | 499 kts | 27° |
| 2026-04-25 13:40 | 45.06213 | 134.01262 | 32972 ft | 500 kts | 27° |
| 2026-04-25 13:41 | 45.11923 | 134.06942 | 32977 ft | 502 kts | 27° |
| 2026-04-25 13:41 | 45.17628 | 134.12660 | 32975 ft | 503 kts | 27° |
| 2026-04-25 13:42 | 45.22416 | 134.17476 | 32973 ft | 504 kts | 27° |
| 2026-04-25 13:42 | 45.28135 | 134.23239 | 32977 ft | 504 kts | 27° |
| 2026-04-25 13:43 | 45.33854 | 134.29014 | 32980 ft | 505 kts | 27° |
| 2026-04-25 13:43 | 45.39574 | 134.34804 | 32976 ft | 504 kts | 27° |
| 2026-04-25 13:44 | 45.45250 | 134.40565 | 32981 ft | 504 kts | 27° |
| 2026-04-25 13:44 | 45.50952 | 134.46366 | 32979 ft | 504 kts | 27° |
| 2026-04-25 13:45 | 45.56651 | 134.52178 | 32986 ft | 503 kts | 27° |
| 2026-04-25 13:45 | 45.62338 | 134.57993 | 32989 ft | 503 kts | 27° |
| 2026-04-25 13:46 | 45.68027 | 134.63826 | 32986 ft | 502 kts | 27° |
| 2026-04-25 13:46 | 45.73702 | 134.69659 | 32997 ft | 502 kts | 27° |
| 2026-04-25 13:47 | 45.79376 | 134.75505 | 32996 ft | 503 kts | 27° |
| 2026-04-25 13:47 | 45.85051 | 134.81367 | 32997 ft | 502 kts | 26° |
| 2026-04-25 13:47 | 45.87974 | 134.83992 | 32993 ft | 490 kts | 17° |
| 2026-04-25 13:48 | 45.91067 | 134.85867 | 33003 ft | 477 kts | 8° |
| 2026-04-25 13:48 | 45.97406 | 134.87759 | 33006 ft | 457 kts | 354° |
| 2026-04-25 13:49 | 46.03746 | 134.88506 | 32993 ft | 458 kts | 354° |
| 2026-04-25 13:49 | 46.10111 | 134.89269 | 33008 ft | 460 kts | 354° |
| 2026-04-25 13:50 | 46.16460 | 134.90088 | 33003 ft | 462 kts | 354° |
| 2026-04-25 13:50 | 46.22870 | 134.90942 | 32994 ft | 463 kts | 354° |
| 2026-04-25 13:51 | 46.29283 | 134.91802 | 32991 ft | 463 kts | 354° |
| 2026-04-25 13:51 | 46.35693 | 134.92662 | 32992 ft | 462 kts | 354° |
| 2026-04-25 13:52 | 46.42093 | 134.93520 | 32990 ft | 462 kts | 354° |
| 2026-04-25 13:52 | 46.48490 | 134.94379 | 32986 ft | 462 kts | 354° |
| 2026-04-25 13:53 | 46.54898 | 134.95240 | 32996 ft | 463 kts | 354° |
| 2026-04-25 13:53 | 46.61317 | 134.96106 | 32991 ft | 464 kts | 354° |
| 2026-04-25 13:54 | 46.67741 | 134.96975 | 32997 ft | 465 kts | 354° |
| 2026-04-25 13:54 | 46.74198 | 134.97851 | 32983 ft | 466 kts | 354° |
| 2026-04-25 13:55 | 46.80622 | 134.98723 | 32987 ft | 468 kts | 354° |
| 2026-04-25 13:55 | 46.83871 | 134.99429 | 32976 ft | 480 kts | 1° |
| 2026-04-25 13:55 | 46.87121 | 135.00722 | 32997 ft | 487 kts | 6° |
| 2026-04-25 13:56 | 46.93603 | 135.03818 | 32991 ft | 492 kts | 7° |
| 2026-04-25 13:56 | 47.00102 | 135.06927 | 32993 ft | 491 kts | 6° |
| 2026-04-25 13:57 | 47.06624 | 135.09899 | 32985 ft | 491 kts | 5° |
| 2026-04-25 13:57 | 47.13158 | 135.12812 | 32990 ft | 490 kts | 5° |
| 2026-04-25 13:58 | 47.19640 | 135.15712 | 32456 ft | 485 kts | 5° |
| 2026-04-25 13:58 | 47.22852 | 135.17151 | 31975 ft | 480 kts | 5° |
| 2026-04-25 13:58 | 47.26028 | 135.18580 | 31497 ft | 475 kts | 5° |
| 2026-04-25 13:58 | 47.29178 | 135.20000 | 31025 ft | 471 kts | 5° |
| 2026-04-25 13:59 | 47.32295 | 135.21406 | 30565 ft | 466 kts | 5° |
| 2026-04-25 13:59 | 47.35381 | 135.22799 | 30129 ft | 462 kts | 5° |
| 2026-04-25 13:59 | 47.38452 | 135.24185 | 29592 ft | 459 kts | 5° |
| 2026-04-25 13:59 | 47.41489 | 135.25557 | 29100 ft | 455 kts | 5° |
| 2026-04-25 14:00 | 47.43489 | 135.26462 | 28792 ft | 452 kts | 5° |
| 2026-04-25 14:00 | 47.47446 | 135.28254 | 28175 ft | 447 kts | 5° |
| 2026-04-25 14:00 | 47.50409 | 135.29598 | 27713 ft | 443 kts | 5° |
| 2026-04-25 14:00 | 47.53346 | 135.30931 | 27241 ft | 440 kts | 5° |
| 2026-04-25 14:01 | 47.56260 | 135.32258 | 26800 ft | 437 kts | 5° |
| 2026-04-25 14:01 | 47.59156 | 135.33576 | 26341 ft | 434 kts | 5° |
| 2026-04-25 14:01 | 47.62031 | 135.34884 | 25897 ft | 431 kts | 5° |
| 2026-04-25 14:01 | 47.64887 | 135.36185 | 25451 ft | 429 kts | 5° |
| 2026-04-25 14:02 | 47.67733 | 135.37484 | 25008 ft | 427 kts | 5° |
| 2026-04-25 14:02 | 47.70566 | 135.38778 | 24566 ft | 425 kts | 5° |
| 2026-04-25 14:02 | 47.73385 | 135.40069 | 24118 ft | 423 kts | 5° |
| 2026-04-25 14:02 | 47.75245 | 135.40921 | 23832 ft | 422 kts | 5° |
| 2026-04-25 14:03 | 47.78998 | 135.42641 | 23159 ft | 421 kts | 5° |
| 2026-04-25 14:03 | 47.81783 | 135.43922 | 22678 ft | 418 kts | 5° |
| 2026-04-25 14:03 | 47.84556 | 135.45199 | 22223 ft | 416 kts | 5° |
| 2026-04-25 14:03 | 47.87311 | 135.46469 | 21781 ft | 413 kts | 5° |
| 2026-04-25 14:04 | 47.90045 | 135.47730 | 21340 ft | 410 kts | 5° |
| 2026-04-25 14:04 | 47.92765 | 135.48984 | 20899 ft | 408 kts | 6° |
| 2026-04-25 14:04 | 47.95468 | 135.50231 | 20470 ft | 405 kts | 6° |
| 2026-04-25 14:04 | 47.98154 | 135.51471 | 20037 ft | 403 kts | 6° |
| 2026-04-25 14:05 | 48.00826 | 135.52705 | 19604 ft | 402 kts | 6° |
| 2026-04-25 14:05 | 48.03490 | 135.53936 | 19167 ft | 400 kts | 6° |
| 2026-04-25 14:05 | 48.06146 | 135.55166 | 18732 ft | 399 kts | 6° |
| 2026-04-25 14:05 | 48.08792 | 135.56394 | 18313 ft | 397 kts | 6° |
| 2026-04-25 14:06 | 48.11429 | 135.57616 | 17806 ft | 396 kts | 7° |
| 2026-04-25 14:06 | 48.14053 | 135.58832 | 17336 ft | 394 kts | 7° |
| 2026-04-25 14:06 | 48.16659 | 135.60034 | 16892 ft | 390 kts | 8° |
| 2026-04-25 14:06 | 48.19214 | 135.61216 | 16461 ft | 388 kts | 9° |
| 2026-04-25 14:07 | 48.21779 | 135.62411 | 16021 ft | 385 kts | 10° |
| 2026-04-25 14:07 | 48.24327 | 135.63608 | 15571 ft | 382 kts | 11° |
| 2026-04-25 14:07 | 48.26853 | 135.64795 | 15162 ft | 379 kts | 12° |
| 2026-04-25 14:07 | 48.29364 | 135.65974 | 14732 ft | 376 kts | 13° |
| 2026-04-25 14:08 | 48.31851 | 135.67140 | 14312 ft | 373 kts | 14° |
| 2026-04-25 14:08 | 48.34321 | 135.68298 | 13894 ft | 370 kts | 14° |
| 2026-04-25 14:08 | 48.36776 | 135.69447 | 13428 ft | 368 kts | 15° |
| 2026-04-25 14:08 | 48.39205 | 135.70588 | 12977 ft | 364 kts | 15° |
| 2026-04-25 14:09 | 48.41614 | 135.71724 | 12553 ft | 361 kts | 15° |
| 2026-04-25 14:09 | 48.44002 | 135.72851 | 12135 ft | 357 kts | 15° |
| 2026-04-25 14:09 | 48.46361 | 135.73965 | 11718 ft | 354 kts | 15° |
| 2026-04-25 14:09 | 48.47123 | 135.74324 | 11580 ft | 354 kts | 15° |
| 2026-04-25 14:10 | 48.51031 | 135.76170 | 10892 ft | 349 kts | 16° |
| 2026-04-25 14:10 | 48.53320 | 135.77252 | 10514 ft | 339 kts | 16° |
| 2026-04-25 14:10 | 48.55506 | 135.78288 | 10372 ft | 320 kts | 16° |
| 2026-04-25 14:10 | 48.57569 | 135.79266 | 10244 ft | 304 kts | 15° |
| 2026-04-25 14:11 | 48.59519 | 135.80189 | 10117 ft | 290 kts | 15° |
| 2026-04-25 14:11 | 48.61450 | 135.81103 | 10100 ft | 290 kts | 15° |
| 2026-04-25 14:11 | 48.63355 | 135.82007 | 9930 ft | 284 kts | 15° |
| 2026-04-25 14:11 | 48.65210 | 135.82888 | 9814 ft | 276 kts | 15° |
| 2026-04-25 14:12 | 48.67020 | 135.83719 | 9736 ft | 267 kts | 11° |
| 2026-04-25 14:12 | 48.68836 | 135.84002 | 9534 ft | 258 kts | 359° |
| 2026-04-25 14:12 | 48.70612 | 135.84004 | 9315 ft | 252 kts | 357° |
| 2026-04-25 14:12 | 48.72355 | 135.83986 | 9017 ft | 250 kts | 358° |
| 2026-04-25 14:13 | 48.74101 | 135.83989 | 8668 ft | 250 kts | 358° |
| 2026-04-25 14:13 | 48.75843 | 135.84015 | 8328 ft | 251 kts | 358° |
| 2026-04-25 14:13 | 48.77595 | 135.84054 | 7938 ft | 253 kts | 359° |
| 2026-04-25 14:13 | 48.79357 | 135.84100 | 7557 ft | 254 kts | 359° |
| 2026-04-25 14:14 | 48.81134 | 135.84144 | 7183 ft | 254 kts | 356° |
| 2026-04-25 14:14 | 48.82801 | 135.83494 | 6738 ft | 248 kts | 323° |
| 2026-04-25 14:14 | 48.83846 | 135.81518 | 6424 ft | 241 kts | 289° |
| 2026-04-25 14:14 | 48.84124 | 135.79077 | 6132 ft | 237 kts | 270° |
| 2026-04-25 14:15 | 48.83887 | 135.76626 | 5822 ft | 234 kts | 251° |
| 2026-04-25 14:15 | 48.83694 | 135.75849 | 5736 ft | 233 kts | 248° |
| 2026-04-25 14:15 | 48.82576 | 135.72177 | 5284 ft | 228 kts | 245° |
| 2026-04-25 14:15 | 48.81894 | 135.70011 | 5036 ft | 227 kts | 245° |
| 2026-04-25 14:16 | 48.81225 | 135.67870 | 4839 ft | 222 kts | 245° |
| 2026-04-25 14:16 | 48.80569 | 135.65754 | 4650 ft | 222 kts | 245° |
| 2026-04-25 14:16 | 48.79908 | 135.63605 | 4471 ft | 227 kts | 245° |
| 2026-04-25 14:16 | 48.79245 | 135.61439 | 4297 ft | 230 kts | 245° |
| 2026-04-25 14:17 | 48.78573 | 135.59234 | 4117 ft | 229 kts | 245° |
| 2026-04-25 14:17 | 48.77913 | 135.57066 | 3914 ft | 224 kts | 245° |
| 2026-04-25 14:17 | 48.77273 | 135.54964 | 3734 ft | 216 kts | 245° |
| 2026-04-25 14:17 | 48.76656 | 135.52937 | 3585 ft | 207 kts | 245° |
| 2026-04-25 14:18 | 48.76035 | 135.51006 | 3449 ft | 198 kts | 235° |
| 2026-04-25 14:18 | 48.75166 | 135.49496 | 3366 ft | 189 kts | 226° |
| 2026-04-25 14:18 | 48.74247 | 135.48092 | 3236 ft | 186 kts | 224° |
| 2026-04-25 14:18 | 48.73313 | 135.46743 | 3072 ft | 186 kts | 223° |
| 2026-04-25 14:19 | 48.72364 | 135.45410 | 2957 ft | 186 kts | 222° |
| 2026-04-25 14:19 | 48.71407 | 135.44082 | 2840 ft | 187 kts | 222° |
| 2026-04-25 14:19 | 48.70447 | 135.42758 | 2686 ft | 187 kts | 221° |
| 2026-04-25 14:19 | 48.69487 | 135.41435 | 2573 ft | 186 kts | 221° |
| 2026-04-25 14:20 | 48.68530 | 135.40119 | 2436 ft | 186 kts | 221° |
| 2026-04-25 14:20 | 48.68206 | 135.39673 | 2401 ft | 186 kts | 221° |
| 2026-04-25 14:20 | 48.66623 | 135.37497 | 2241 ft | 184 kts | 221° |
| 2026-04-25 14:20 | 48.65674 | 135.36193 | 2192 ft | 185 kts | 221° |
| 2026-04-25 14:21 | 48.64732 | 135.34900 | 2188 ft | 177 kts | 222° |
| 2026-04-25 14:21 | 48.63850 | 135.33688 | 2178 ft | 166 kts | 222° |
| 2026-04-25 14:21 | 48.63009 | 135.32533 | 2166 ft | 162 kts | 221° |
| 2026-04-25 14:21 | 48.62178 | 135.31393 | 2180 ft | 165 kts | 221° |
| 2026-04-25 14:22 | 48.61326 | 135.30224 | 2057 ft | 161 kts | 222° |
| 2026-04-25 14:22 | 48.60531 | 135.29134 | 1875 ft | 148 kts | 222° |
| 2026-04-25 14:22 | 48.59776 | 135.28099 | 1702 ft | 146 kts | 222° |
| 2026-04-25 14:22 | 48.59025 | 135.27072 | 1512 ft | 145 kts | 222° |
| 2026-04-25 14:23 | 48.58278 | 135.26048 | 1355 ft | 145 kts | 221° |
| 2026-04-25 14:23 | 48.57524 | 135.25022 | 1169 ft | 147 kts | 222° |
| 2026-04-25 14:23 | 48.56770 | 135.23994 | 938 ft | 145 kts | 221° |
| 2026-04-25 14:23 | 48.56042 | 135.22993 | 771 ft | 143 kts | 221° |
| 2026-04-25 14:24 | 48.55294 | 135.21970 | 619 ft | 145 kts | 221° |
| 2026-04-25 14:24 | 48.54538 | 135.20936 | 401 ft | 148 kts | 221° |
| 2026-04-25 14:24 | 48.53785 | 135.19902 | 248 ft | 146 kts | 220° |
| 2026-04-25 14:24 | 48.53104 | 135.18981 | 256 ft | 111 kts | 222° |
| 2026-04-25 14:25 | 48.52639 | 135.18348 | 248 ft | 67 kts | 222° |
| 2026-04-25 14:25 | 48.52408 | 135.18033 | 247 ft | 21 kts | 221° |
| 2026-04-25 14:25 | 48.52319 | 135.17909 | 249 ft | 17 kts | 224° |
| 2026-04-25 14:25 | 48.52298 | 135.17868 | 250 ft | 12 kts | 239° |
| 2026-04-25 14:26 | 48.52346 | 135.17689 | 251 ft | 11 kts | 311° |
| 2026-04-25 14:26 | 48.52399 | 135.17601 | 251 ft | 9 kts | 312° |
| 2026-04-25 14:26 | 48.52442 | 135.17529 | 250 ft | 8 kts | 312° |
| 2026-04-25 14:26 | 48.52481 | 135.17464 | 250 ft | 8 kts | 312° |
| 2026-04-25 14:27 | 48.52505 | 135.17414 | 250 ft | 6 kts | 293° |
| 2026-04-25 14:27 | 48.52513 | 135.17353 | 250 ft | 6 kts | 289° |
| 2026-04-25 14:27 | 48.52534 | 135.17306 | 250 ft | 4 kts | 308° |
| 2026-04-25 14:27 | 48.52550 | 135.17277 | 250 ft | 2 kts | 309° |
| 2026-04-25 14:28 | 48.52556 | 135.17266 | 250 ft | 1 kts | 309° |
| 2026-04-25 14:28 | 48.52557 | 135.17264 | 250 ft | 0 kts | 309° |